Time;durP1;ratioP1;P1;durP2;ratioP2;P2;SDS_P1;SDS_P2;PMS_P1;PMS_P2;Temp;Humidity;BMP_temperature;BMP_pressure;BME280_temperature;BME280_humidity;BME280_pressure;Samples;Min_cycle;Max_cycle;Signal;HPM_P1;HPM_P2
2022/03/02 00:00:19;;;;;;;8.75;7.93;;;-7.40;99.90;;;;;;5083932;28;20695;-60
2022/03/02 00:02:59;;;;;;;9.35;8.38;;;-7.40;99.90;;;;;;5104530;27;20654;-60
2022/03/02 00:05:39;;;;;;;8.07;7.32;;;-7.50;99.90;;;;;;5084305;28;20817;-59
2022/03/02 00:08:19;;;;;;;8.57;7.85;;;-7.50;99.90;;;;;;5084329;28;20675;-59
2022/03/02 00:10:58;;;;;;;8.75;7.93;;;-7.60;99.90;;;;;;5164731;27;21092;-59
2022/03/02 00:13:39;;;;;;;8.55;7.68;;;-7.60;99.90;;;;;;5103993;27;20662;-59
2022/03/02 00:16:18;;;;;;;8.15;7.45;;;-7.60;99.90;;;;;;5084663;28;20539;-59
2022/03/02 00:18:58;;;;;;;8.25;7.55;;;-7.60;99.90;;;;;;5124549;27;20536;-59
2022/03/02 00:21:37;;;;;;;8.45;7.75;;;-7.50;99.90;;;;;;5104957;27;20654;-59
2022/03/02 00:24:17;;;;;;;7.38;6.68;;;-7.50;99.90;;;;;;5084140;28;21212;-59
2022/03/02 00:26:57;;;;;;;8.45;7.72;;;-7.40;99.90;;;;;;5104924;27;20673;-59
2022/03/02 00:29:37;;;;;;;7.10;6.50;;;-7.40;99.90;;;;;;5104476;27;20561;-59
2022/03/02 00:32:17;;;;;;;7.47;6.63;;;-7.40;99.90;;;;;;5084818;27;20687;-59
2022/03/02 00:34:57;;;;;;;7.03;6.45;;;-7.40;99.90;;;;;;5084409;28;20668;-59
2022/03/02 00:37:37;;;;;;;7.25;6.53;;;-7.30;99.90;;;;;;5104228;27;20542;-59
2022/03/02 00:40:16;;;;;;;8.73;7.75;;;-7.30;99.90;;;;;;5145772;27;20869;-59
2022/03/02 00:42:56;;;;;;;7.30;6.70;;;-7.30;99.90;;;;;;5084443;27;20539;-59
2022/03/02 00:45:37;;;;;;;7.85;7.15;;;-7.40;99.90;;;;;;5145496;27;20543;-59
2022/03/02 00:48:17;;;;;;;7.43;6.82;;;-7.50;99.90;;;;;;5124852;27;20679;-59
2022/03/02 00:50:56;;;;;;;6.95;6.35;;;-7.60;99.90;;;;;;5104630;27;21078;-60
2022/03/02 00:53:36;;;;;;;6.65;6.10;;;-7.60;99.90;;;;;;5084051;27;20648;-59
2022/03/02 00:56:15;;;;;;;6.90;6.20;;;-7.60;99.90;;;;;;5104729;27;20538;-59
2022/03/02 00:58:55;;;;;;;6.97;6.40;;;-7.80;99.90;;;;;;5124296;27;20548;-59
2022/03/02 01:01:35;;;;;;;7.78;7.07;;;-7.90;99.90;;;;;;5105188;27;20865;-59
2022/03/02 01:04:16;;;;;;;7.70;6.95;;;-7.90;99.90;;;;;;5145612;27;20685;-59
2022/03/02 01:06:55;;;;;;;7.65;6.95;;;-7.90;99.90;;;;;;5084563;28;20551;-59
2022/03/02 01:09:35;;;;;;;7.25;6.65;;;-7.90;99.90;;;;;;5145864;27;20549;-59
2022/03/02 01:12:16;;;;;;;8.15;7.38;;;-8.00;99.90;;;;;;5084670;27;20544;-59
2022/03/02 01:14:56;;;;;;;10.80;9.80;;;-8.10;99.90;;;;;;5125033;27;20540;-59
2022/03/02 01:17:36;;;;;;;8.85;8.05;;;-8.20;99.90;;;;;;5104631;27;21055;-60
2022/03/02 01:20:16;;;;;;;12.55;11.45;;;-8.20;99.90;;;;;;5159783;27;20651;-59
2022/03/02 01:22:55;;;;;;;7.05;6.45;;;-8.10;99.90;;;;;;5146861;27;20669;-59
2022/03/02 01:25:35;;;;;;;8.70;7.90;;;-8.10;99.90;;;;;;5104842;27;20541;-59
2022/03/02 01:28:15;;;;;;;7.57;6.88;;;-8.20;99.90;;;;;;5143789;27;20566;-59
2022/03/02 01:30:55;;;;;;;8.02;7.32;;;-8.10;99.90;;;;;;5098370;27;20579;-59
2022/03/02 01:33:34;;;;;;;9.05;8.25;;;-8.10;99.90;;;;;;5084020;28;20672;-59
2022/03/02 01:36:14;;;;;;;7.57;6.95;;;-8.10;99.90;;;;;;5083804;28;20672;-59
2022/03/02 01:38:54;;;;;;;9.50;8.25;;;-8.20;99.90;;;;;;5082228;27;20668;-59
2022/03/02 01:41:34;;;;;;;7.93;7.22;;;-8.20;99.90;;;;;;5146495;27;20550;-59
2022/03/02 01:44:14;;;;;;;9.80;7.47;;;-8.20;99.90;;;;;;5084133;28;20672;-59
2022/03/02 01:46:54;;;;;;;9.15;7.65;;;-8.20;99.90;;;;;;5084983;27;20555;-59
2022/03/02 01:49:35;;;;;;;8.18;7.38;;;-8.20;99.90;;;;;;5105093;27;20681;-59
2022/03/02 01:52:15;;;;;;;7.80;7.13;;;-8.30;99.90;;;;;;5085129;28;21090;-59
2022/03/02 01:54:55;;;;;;;7.20;6.50;;;-8.30;99.90;;;;;;5104355;27;20545;-59
2022/03/02 01:57:35;;;;;;;7.57;6.90;;;-8.30;99.90;;;;;;5104286;27;20669;-59
2022/03/02 02:00:18;;;;;;;7.10;6.40;;;-8.30;99.90;;;;;;5145491;27;20550;-59
2022/03/02 02:02:57;;;;;;;7.75;6.95;;;-8.30;99.90;;;;;;5146598;27;20665;-59
2022/03/02 02:05:37;;;;;;;8.05;7.10;;;-8.40;99.90;;;;;;5104332;27;20567;-59
2022/03/02 02:08:17;;;;;;;8.23;7.53;;;-8.50;99.90;;;;;;5124881;27;20536;-59
2022/03/02 02:10:57;;;;;;;8.43;7.57;;;-8.30;99.90;;;;;;5104644;27;20974;-59
2022/03/02 02:13:37;;;;;;;8.73;8.02;;;-8.20;99.90;;;;;;5124638;27;20551;-59
2022/03/02 02:16:17;;;;;;;7.57;6.88;;;-8.20;99.90;;;;;;5104776;27;20677;-60
2022/03/02 02:18:56;;;;;;;9.63;7.85;;;-8.20;99.90;;;;;;5083877;28;20660;-60
2022/03/02 02:21:36;;;;;;;7.35;6.75;;;-8.30;99.90;;;;;;5084535;27;20548;-59
2022/03/02 02:24:17;;;;;;;7.95;7.35;;;-8.40;99.90;;;;;;5084147;27;21103;-59
2022/03/02 02:26:58;;;;;;;7.88;7.18;;;-8.40;99.90;;;;;;5124998;27;20962;-60
2022/03/02 02:29:39;;;;;;;8.52;7.72;;;-8.40;99.90;;;;;;5104725;27;20550;-59
2022/03/02 02:32:19;;;;;;;7.90;7.30;;;-8.40;99.90;;;;;;5105329;27;20669;-59
2022/03/02 02:34:59;;;;;;;9.77;7.72;;;-8.50;99.90;;;;;;5078708;28;20691;-59
2022/03/02 02:37:39;;;;;;;7.45;6.75;;;-8.40;99.90;;;;;;5144910;27;20582;-59
2022/03/02 02:40:21;;;;;;;8.38;7.40;;;-8.50;99.90;;;;;;5084185;28;20684;-60
2022/03/02 02:43:01;;;;;;;7.78;7.07;;;-8.60;99.90;;;;;;5104739;27;21202;-60
2022/03/02 02:45:41;;;;;;;8.43;7.60;;;-8.60;99.90;;;;;;5083862;27;20559;-59
2022/03/02 02:48:21;;;;;;;8.07;7.28;;;-8.70;99.90;;;;;;5083862;27;20543;-59
2022/03/02 02:51:01;;;;;;;9.32;7.80;;;-8.70;99.90;;;;;;5105140;27;20678;-60
2022/03/02 02:53:40;;;;;;;8.02;7.32;;;-8.70;99.90;;;;;;5124758;27;20950;-59
2022/03/02 02:56:21;;;;;;;8.43;7.60;;;-8.60;99.90;;;;;;5105056;27;21337;-59
2022/03/02 02:59:01;;;;;;;7.53;6.93;;;-8.60;99.90;;;;;;5083543;28;20604;-59
2022/03/02 03:01:40;;;;;;;8.13;7.43;;;-8.50;99.90;;;;;;5084911;28;20539;-60
2022/03/02 03:04:20;;;;;;;8.68;7.88;;;-8.40;99.90;;;;;;5125096;27;20536;-59
2022/03/02 03:07:00;;;;;;;8.00;7.03;;;-8.30;99.90;;;;;;5084788;27;20909;-59
2022/03/02 03:09:39;;;;;;;8.25;7.47;;;-8.20;99.90;;;;;;5104552;27;21210;-59
2022/03/02 03:12:19;;;;;;;9.00;7.82;;;-8.10;99.90;;;;;;5084401;28;20660;-59
2022/03/02 03:14:59;;;;;;;7.63;6.85;;;-8.10;99.90;;;;;;5144895;27;20604;-59
2022/03/02 03:17:40;;;;;;;7.75;7.05;;;-8.10;99.90;;;;;;5104074;27;20873;-60
2022/03/02 03:20:21;;;;;;;7.03;6.43;;;-8.10;99.90;;;;;;5104627;27;20962;-59
2022/03/02 03:23:00;;;;;;;7.68;7.07;;;-8.10;99.90;;;;;;5124934;27;20548;-59
2022/03/02 03:25:40;;;;;;;7.47;6.78;;;-8.10;99.90;;;;;;5084063;28;20668;-59
2022/03/02 03:28:20;;;;;;;8.07;7.38;;;-8.00;99.90;;;;;;5083606;28;20679;-59
2022/03/02 03:31:00;;;;;;;8.48;7.40;;;-7.80;99.90;;;;;;5104595;27;20562;-59
2022/03/02 03:33:39;;;;;;;8.52;7.82;;;-7.80;99.90;;;;;;5104133;27;21106;-59
2022/03/02 03:36:19;;;;;;;7.25;6.55;;;-7.90;99.90;;;;;;5084552;28;20668;-59
2022/03/02 03:38:59;;;;;;;8.93;8.13;;;-7.90;99.90;;;;;;5104016;27;20672;-60
2022/03/02 03:41:39;;;;;;;7.80;7.00;;;-7.80;99.90;;;;;;5104616;27;20961;-60
2022/03/02 03:44:19;;;;;;;7.20;6.60;;;-7.80;99.90;;;;;;5083652;28;20555;-60
2022/03/02 03:46:59;;;;;;;8.02;7.35;;;-7.70;99.90;;;;;;5125012;27;20585;-59
2022/03/02 03:49:39;;;;;;;7.78;6.88;;;-7.60;99.90;;;;;;5145714;27;20682;-58
2022/03/02 03:52:18;;;;;;;8.43;7.55;;;-7.60;99.90;;;;;;5125177;27;20552;-59
2022/03/02 03:54:58;;;;;;;8.93;8.15;;;-7.60;99.90;;;;;;5145669;27;20672;-59
2022/03/02 03:57:38;;;;;;;10.07;9.05;;;-7.70;99.90;;;;;;5104392;27;21043;-59
2022/03/02 04:00:20;;;;;;;9.93;9.10;;;-7.60;99.90;;;;;;5084091;27;20935;-59
2022/03/02 04:02:59;;;;;;;8.13;7.53;;;-7.60;99.90;;;;;;5084199;28;20547;-59
2022/03/02 04:05:39;;;;;;;7.80;6.82;;;-7.60;99.90;;;;;;5145289;27;21058;-60
2022/03/02 04:08:19;;;;;;;7.57;6.88;;;-7.40;99.90;;;;;;5124555;27;20540;-60
2022/03/02 04:10:59;;;;;;;7.32;6.55;;;-7.40;99.90;;;;;;5084055;28;20676;-59
2022/03/02 04:13:38;;;;;;;7.35;6.75;;;-7.30;99.90;;;;;;5145747;27;20672;-59
2022/03/02 04:16:18;;;;;;;7.70;6.97;;;-7.30;99.90;;;;;;5145904;27;20676;-59
2022/03/02 04:18:58;;;;;;;8.60;7.80;;;-7.30;99.90;;;;;;5125084;27;20537;-59
2022/03/02 04:21:38;;;;;;;7.78;6.97;;;-7.30;99.90;;;;;;5104920;27;21218;-59
2022/03/02 04:24:18;;;;;;;7.80;7.13;;;-7.30;99.90;;;;;;5145777;27;20673;-59
2022/03/02 04:26:58;;;;;;;8.98;7.65;;;-7.30;99.90;;;;;;5104572;27;20542;-59
2022/03/02 04:29:37;;;;;;;7.40;6.53;;;-7.30;99.90;;;;;;5084354;27;20552;-60
2022/03/02 04:32:17;;;;;;;8.00;7.30;;;-7.30;99.90;;;;;;5084547;28;20664;-59
2022/03/02 04:34:57;;;;;;;8.23;7.43;;;-7.30;99.90;;;;;;5104446;27;21202;-60
2022/03/02 04:37:37;;;;;;;14.05;7.28;;;-7.20;99.90;;;;;;5103975;27;20673;-60
2022/03/02 04:40:17;;;;;;;8.75;7.85;;;-7.10;99.90;;;;;;5104730;27;20689;-59
2022/03/02 04:42:57;;;;;;;8.15;7.43;;;-7.10;99.90;;;;;;5084566;28;20667;-59
2022/03/02 04:45:36;;;;;;;10.73;7.53;;;-7.10;99.90;;;;;;5145494;27;20538;-60
2022/03/02 04:48:16;;;;;;;9.15;7.13;;;-7.00;99.90;;;;;;5125126;27;20568;-59
2022/03/02 04:50:56;;;;;;;8.18;7.57;;;-6.90;99.90;;;;;;5104839;27;20693;-59
2022/03/02 04:53:36;;;;;;;11.30;7.55;;;-6.90;99.90;;;;;;5145932;27;20672;-60
2022/03/02 04:56:16;;;;;;;7.93;7.22;;;-6.80;99.90;;;;;;5105079;27;20560;-59
2022/03/02 04:58:56;;;;;;;11.73;7.60;;;-6.80;99.90;;;;;;5103474;27;20669;-59
2022/03/02 05:01:35;;;;;;;7.63;6.93;;;-6.80;99.90;;;;;;5104497;27;20546;-59
2022/03/02 05:04:16;;;;;;;6.95;6.43;;;-6.80;99.90;;;;;;5145281;27;21051;-59
2022/03/02 05:06:55;;;;;;;7.90;6.80;;;-6.80;99.90;;;;;;5104641;27;20657;-60
2022/03/02 05:09:35;;;;;;;7.68;7.00;;;-6.90;99.90;;;;;;5124728;27;20548;-59
2022/03/02 05:12:15;;;;;;;10.40;7.43;;;-6.90;99.90;;;;;;5125417;27;20675;-59
2022/03/02 05:14:54;;;;;;;7.13;6.50;;;-6.90;99.90;;;;;;5124620;27;20663;-60
2022/03/02 05:17:35;;;;;;;7.90;7.30;;;-6.90;99.90;;;;;;5124628;27;20559;-60
2022/03/02 05:20:16;;;;;;;7.72;7.03;;;-6.80;99.90;;;;;;5104678;27;20646;-59
2022/03/02 05:22:56;;;;;;;7.82;7.13;;;-6.80;99.90;;;;;;5084554;27;20543;-59
2022/03/02 05:25:35;;;;;;;8.85;7.45;;;-6.80;99.90;;;;;;5104398;27;20542;-59
2022/03/02 05:28:15;;;;;;;7.68;6.97;;;-6.80;99.90;;;;;;5103907;27;20690;-60
2022/03/02 05:30:55;;;;;;;8.40;7.57;;;-6.80;99.90;;;;;;5084602;28;20677;-60
2022/03/02 05:33:35;;;;;;;7.05;6.35;;;-6.80;99.90;;;;;;5145919;27;20543;-59
2022/03/02 05:36:15;;;;;;;7.63;6.93;;;-6.80;99.90;;;;;;5146010;27;20953;-60
2022/03/02 05:38:55;;;;;;;7.95;6.80;;;-6.80;99.90;;;;;;5104266;27;22196;-59
2022/03/02 05:41:34;;;;;;;9.77;7.57;;;-6.70;99.90;;;;;;5084895;27;20555;-59
2022/03/02 05:44:14;;;;;;;7.07;6.32;;;-6.80;99.90;;;;;;5104588;27;20542;-59
2022/03/02 05:46:54;;;;;;;8.52;7.47;;;-6.80;99.90;;;;;;5084749;28;20547;-59
2022/03/02 05:49:34;;;;;;;7.68;7.07;;;-6.70;99.90;;;;;;5104695;27;20681;-59
2022/03/02 05:52:14;;;;;;;7.07;6.53;;;-6.70;99.90;;;;;;5125793;27;20556;-60
2022/03/02 05:54:53;;;;;;;7.82;6.85;;;-6.90;99.90;;;;;;5083892;27;21084;-59
2022/03/02 05:57:34;;;;;;;7.93;7.13;;;-7.00;99.90;;;;;;5145374;27;20669;-59
2022/03/02 06:00:14;;;;;;;7.03;6.53;;;-7.00;99.90;;;;;;5145631;27;20550;-59
2022/03/02 06:02:54;;;;;;;7.63;6.97;;;-7.00;99.90;;;;;;5125438;27;20552;-59
2022/03/02 06:05:34;;;;;;;7.97;7.07;;;-6.90;99.90;;;;;;5083800;27;20691;-60
2022/03/02 06:08:14;;;;;;;7.53;6.82;;;-6.80;99.90;;;;;;5083488;27;20668;-60
2022/03/02 06:10:54;;;;;;;7.30;6.70;;;-6.70;99.90;;;;;;5164407;27;20678;-59
2022/03/02 06:13:35;;;;;;;8.18;7.10;;;-6.60;99.90;;;;;;5104468;27;21068;-59
2022/03/02 06:16:14;;;;;;;7.75;7.07;;;-6.40;99.90;;;;;;5125131;27;20659;-59
2022/03/02 06:18:54;;;;;;;8.20;7.50;;;-6.30;99.90;;;;;;5103680;27;20964;-60
2022/03/02 06:21:34;;;;;;;9.32;7.35;;;-6.10;99.90;;;;;;5105300;27;20674;-59
2022/03/02 06:24:14;;;;;;;7.95;7.15;;;-5.90;99.90;;;;;;5125195;27;20663;-59
2022/03/02 06:26:55;;;;;;;8.77;7.85;;;-5.80;99.90;;;;;;5125525;27;20536;-59
2022/03/02 06:29:34;;;;;;;8.20;7.57;;;-5.70;99.90;;;;;;5104201;27;20673;-59
2022/03/02 06:32:15;;;;;;;8.85;8.00;;;-5.50;99.90;;;;;;5105058;27;20545;-59
2022/03/02 06:34:54;;;;;;;9.45;8.32;;;-5.30;99.90;;;;;;5103704;27;20555;-59
2022/03/02 06:37:34;;;;;;;8.70;7.72;;;-5.10;99.90;;;;;;5103995;27;20677;-59
2022/03/02 06:40:14;;;;;;;12.38;9.82;;;-4.90;99.90;;;;;;5124913;27;20676;-59
2022/03/02 06:43:14;;;;;;;12.82;11.25;;;-4.70;99.90;;;;;;5142645;27;20939;-59
2022/03/02 06:45:58;;;;;;;19.67;17.02;;;-4.60;99.90;;;;;;5082950;28;20675;-59
2022/03/02 06:48:47;;;;;;;24.25;21.33;;;-4.40;99.90;;;;;;5094206;27;20683;-59
2022/03/02 06:51:30;;;;;;;21.85;14.85;;;-4.20;99.90;;;;;;5120665;27;21028;-59
2022/03/02 06:54:12;;;;;;;14.40;13.00;;;-4.10;99.90;;;;;;5143058;27;20681;-59
2022/03/02 06:56:56;;;;;;;14.85;13.45;;;-3.90;99.90;;;;;;5116055;27;20665;-60
2022/03/02 06:59:39;;;;;;;10.65;9.70;;;-3.80;99.90;;;;;;5123189;27;20548;-59
2022/03/02 07:02:25;;;;;;;11.15;10.15;;;-3.60;99.90;;;;;;5146085;27;20840;-59
2022/03/02 07:05:08;;;;;;;10.70;9.82;;;-3.50;99.90;;;;;;5083726;28;20836;-59
2022/03/02 07:07:49;;;;;;;11.18;10.32;;;-3.30;99.90;;;;;;5145505;27;20530;-59
2022/03/02 07:10:28;;;;;;;9.95;9.15;;;-3.20;99.90;;;;;;5103766;27;20685;-59
2022/03/02 07:13:09;;;;;;;10.73;9.75;;;-3.20;99.90;;;;;;5084484;28;20601;-59
2022/03/02 07:15:52;;;;;;;11.90;10.70;;;-3.10;99.90;;;;;;5104379;27;20546;-59
2022/03/02 07:18:34;;;;;;;10.82;9.82;;;-3.00;99.90;;;;;;5120079;27;21116;-59
2022/03/02 07:21:15;;;;;;;10.07;9.00;;;-2.80;99.90;;;;;;5116837;27;20548;-59
2022/03/02 07:23:57;;;;;;;11.40;10.20;;;-2.70;99.90;;;;;;5104191;27;20673;-59
2022/03/02 07:26:37;;;;;;;11.50;10.32;;;-2.60;99.90;;;;;;5125457;27;21024;-59
2022/03/02 07:29:16;;;;;;;13.85;10.63;;;-2.30;99.90;;;;;;5114848;27;20982;-59
2022/03/02 07:31:58;;;;;;;11.88;10.07;;;-2.10;99.90;;;;;;5133499;27;20753;-59
2022/03/02 07:34:42;;;;;;;14.40;11.80;;;-1.90;99.90;;;;;;5069285;28;20686;-59
2022/03/02 07:37:23;;;;;;;10.93;9.85;;;-1.80;99.90;;;;;;5102458;27;20549;-58
2022/03/02 07:40:03;;;;;;;12.13;10.88;;;-1.70;99.90;;;;;;5083139;28;20708;-59
2022/03/02 07:42:44;;;;;;;11.82;10.60;;;-1.60;99.90;;;;;;5145847;27;20665;-59
2022/03/02 07:45:23;;;;;;;12.27;10.63;;;-1.50;99.90;;;;;;5083380;28;20663;-59
2022/03/02 07:48:03;;;;;;;12.23;10.75;;;-1.40;99.90;;;;;;5083681;28;20688;-58
2022/03/02 07:50:43;;;;;;;11.48;10.55;;;-1.30;99.90;;;;;;5145207;27;20665;-59
2022/03/02 07:53:26;;;;;;;12.38;11.15;;;-1.10;99.90;;;;;;5145610;27;20945;-59
2022/03/02 07:56:08;;;;;;;11.32;10.18;;;-1.00;99.90;;;;;;5145237;27;20543;-58
2022/03/02 07:58:47;;;;;;;12.23;11.02;;;-0.90;99.90;;;;;;5095898;27;21309;-59
2022/03/02 08:01:28;;;;;;;13.23;11.40;;;-0.90;99.90;;;;;;5102474;27;20606;-59
2022/03/02 08:04:09;;;;;;;12.00;10.90;;;-0.90;99.90;;;;;;5102094;27;20677;-59
2022/03/02 08:06:49;;;;;;;17.90;11.40;;;-0.90;99.90;;;;;;5082500;28;20832;-58
2022/03/02 08:09:28;;;;;;;11.23;10.13;;;-0.80;99.90;;;;;;5102453;27;20586;-58
2022/03/02 08:12:08;;;;;;;13.13;10.85;;;-0.80;99.90;;;;;;5082409;27;20562;-58
2022/03/02 08:14:48;;;;;;;18.05;11.45;;;-0.70;99.90;;;;;;5102311;27;21137;-59
2022/03/02 08:17:28;;;;;;;12.88;11.80;;;-0.60;99.90;;;;;;5081510;28;21034;-59
2022/03/02 08:20:08;;;;;;;13.88;11.90;;;-0.40;99.90;;;;;;5154920;27;20613;-58
2022/03/02 08:22:52;;;;;;;13.95;11.18;;;-0.30;99.90;;;;;;5103776;27;20955;-58
2022/03/02 08:25:34;;;;;;;14.27;12.32;;;-0.30;99.90;;;;;;5104183;27;20690;-59
2022/03/02 08:28:16;;;;;;;12.57;10.98;;;-0.20;99.90;;;;;;5144921;27;20558;-58
2022/03/02 08:30:55;;;;;;;12.10;10.90;;;0.00;99.90;;;;;;5063780;27;21112;-59
2022/03/02 08:33:35;;;;;;;11.23;10.18;;;0.20;99.90;;;;;;5104800;27;20534;-58
2022/03/02 08:36:21;;;;;;;11.90;10.70;;;0.30;99.90;;;;;;5104316;27;20678;-58
2022/03/02 08:39:02;;;;;;;12.05;11.00;;;0.40;99.90;;;;;;5083475;28;21027;-59
2022/03/02 08:41:42;;;;;;;12.48;11.25;;;0.50;99.90;;;;;;5145716;27;20539;-58
2022/03/02 08:44:23;;;;;;;12.35;11.05;;;0.50;99.90;;;;;;5083237;28;20671;-58
2022/03/02 08:47:02;;;;;;;12.07;10.98;;;0.70;99.90;;;;;;5104062;27;21042;-58
2022/03/02 08:49:41;;;;;;;13.10;11.80;;;0.90;99.90;;;;;;5103780;27;21190;-59
2022/03/02 08:52:27;;;;;;;13.30;11.18;;;1.20;99.90;;;;;;5084016;28;20659;-59
2022/03/02 08:55:10;;;;;;;12.15;10.75;;;1.40;99.90;;;;;;5143075;27;20677;-58
2022/03/02 08:57:52;;;;;;;11.32;10.43;;;1.60;99.90;;;;;;5082553;27;20575;-59
2022/03/02 09:00:33;;;;;;;12.35;10.43;;;1.80;99.90;;;;;;5124245;27;20548;-58
2022/03/02 09:03:16;;;;;;;12.32;10.90;;;1.90;99.90;;;;;;5084064;28;21208;-58
2022/03/02 09:05:55;;;;;;;11.75;10.55;;;2.20;99.90;;;;;;5124721;27;20568;-58
2022/03/02 09:08:35;;;;;;;11.88;10.77;;;2.50;99.90;;;;;;5083257;28;20680;-58
2022/03/02 09:11:15;;;;;;;11.90;10.80;;;2.60;99.90;;;;;;5083123;27;20910;-58
2022/03/02 09:13:55;;;;;;;12.50;11.35;;;2.80;99.90;;;;;;5104879;27;20674;-58
2022/03/02 09:16:35;;;;;;;13.18;11.88;;;2.80;99.90;;;;;;5085943;27;20556;-58
2022/03/02 09:19:14;;;;;;;14.85;12.57;;;2.90;99.90;;;;;;5085275;28;20679;-59
2022/03/02 09:21:56;;;;;;;13.13;11.15;;;3.10;99.90;;;;;;5127745;22;20605;-59
2022/03/02 09:24:37;;;;;;;14.07;11.27;;;3.30;99.90;;;;;;5083432;27;20555;-59
2022/03/02 09:27:19;;;;;;;15.00;11.50;;;3.30;99.90;;;;;;5076467;28;21203;-59
2022/03/02 09:30:00;;;;;;;12.93;11.30;;;3.20;99.90;;;;;;5127323;27;20668;-58
2022/03/02 09:32:42;;;;;;;12.90;11.73;;;3.20;99.90;;;;;;5104319;27;20546;-59
2022/03/02 09:35:23;;;;;;;13.55;12.05;;;3.40;99.90;;;;;;5104147;27;20537;-59
2022/03/02 09:38:02;;;;;;;12.50;11.15;;;3.50;99.90;;;;;;5083791;28;20671;-59
2022/03/02 09:40:44;;;;;;;13.90;12.48;;;3.60;99.90;;;;;;5125553;27;20697;-59
2022/03/02 09:43:27;;;;;;;17.60;12.95;;;3.80;99.90;;;;;;5084765;27;20577;-59
2022/03/02 09:46:11;;;;;;;12.02;10.43;;;3.90;99.90;;;;;;5105066;27;21097;-58
2022/03/02 09:48:51;;;;;;;14.90;13.18;;;4.10;99.90;;;;;;5086104;27;20540;-58
2022/03/02 09:51:33;;;;;;;12.82;11.55;;;4.50;99.90;;;;;;5126921;27;20548;-58
2022/03/02 09:54:15;;;;;;;13.02;11.35;;;4.90;99.90;;;;;;5086280;27;20561;-58
2022/03/02 09:56:56;;;;;;;13.80;10.75;;;5.00;99.90;;;;;;5106415;27;20653;-58
2022/03/02 09:59:38;;;;;;;12.10;10.90;;;5.20;99.90;;;;;;5086767;27;21232;-58
2022/03/02 10:02:29;;;;;;;12.75;11.45;;;5.30;99.90;;;;;;5105669;27;20601;-58
2022/03/02 10:05:10;;;;;;;12.77;11.07;;;5.30;99.90;;;;;;5127173;27;20528;-57
2022/03/02 10:07:58;;;;;;;11.55;10.55;;;5.30;99.90;;;;;;5085378;28;20671;-58
2022/03/02 10:10:40;;;;;;;11.18;10.13;;;5.30;99.90;;;;;;5106322;27;20693;-58
2022/03/02 10:13:19;;;;;;;13.45;11.23;;;5.40;99.90;;;;;;5086042;27;20559;-58
2022/03/02 10:16:03;;;;;;;12.68;11.48;;;5.50;99.90;;;;;;5086435;27;20668;-58
2022/03/02 10:18:43;;;;;;;11.10;10.13;;;5.70;99.90;;;;;;5145758;27;20661;-58
2022/03/02 10:21:28;;;;;;;13.05;10.73;;;5.80;99.90;;;;;;5083770;27;20997;-58
2022/03/02 10:24:13;;;;;;;12.27;10.02;;;6.00;99.90;;;;;;5084597;28;20672;-57
2022/03/02 10:27:02;;;;;;;11.57;10.68;;;6.00;99.90;;;;;;5084160;28;20679;-58
2022/03/02 10:29:57;;;;;;;10.77;9.80;;;6.20;99.90;;;;;;5138952;27;20679;-58
2022/03/02 10:32:36;;;;;;;11.80;10.60;;;6.20;99.90;;;;;;5118963;27;20813;-58
2022/03/02 10:35:22;;;;;;;12.98;11.77;;;6.40;99.90;;;;;;5091621;27;20683;-58
2022/03/02 10:38:05;;;;;;;13.27;10.85;;;6.60;99.90;;;;;;5103480;27;21042;-58
2022/03/02 10:40:48;;;;;;;11.00;10.00;;;6.60;99.90;;;;;;5097566;27;20556;-58
2022/03/02 10:43:39;;;;;;;12.38;10.45;;;6.70;99.90;;;;;;5104917;27;21024;-58
2022/03/02 10:46:22;;;;;;;10.75;9.70;;;7.00;99.90;;;;;;5106007;27;20546;-58
2022/03/02 10:49:07;;;;;;;11.85;10.32;;;7.30;99.90;;;;;;5086722;28;20679;-58
2022/03/02 10:51:46;;;;;;;12.45;11.15;;;7.70;99.90;;;;;;5105911;27;20546;-58
2022/03/02 10:54:27;;;;;;;10.75;9.75;;;7.60;99.90;;;;;;5147421;27;20641;-58
2022/03/02 10:57:11;;;;;;;11.35;9.93;;;7.60;99.90;;;;;;5085665;28;20668;-58
2022/03/02 10:59:53;;;;;;;11.95;9.88;;;7.50;98.90;;;;;;5147399;27;20657;-58
2022/03/02 11:02:35;;;;;;;11.07;9.98;;;7.60;98.50;;;;;;5084275;27;20551;-58
2022/03/02 11:05:17;;;;;;;11.98;10.60;;;7.70;98.00;;;;;;5085987;27;21076;-58
2022/03/02 11:07:57;;;;;;;11.73;10.52;;;7.70;99.50;;;;;;5125536;27;20954;-58
2022/03/02 11:10:39;;;;;;;12.65;9.73;;;7.70;97.90;;;;;;5085792;27;20577;-58
2022/03/02 11:13:18;;;;;;;10.85;9.82;;;7.80;98.00;;;;;;5126576;27;20672;-58
2022/03/02 11:16:00;;;;;;;10.27;9.00;;;8.00;95.80;;;;;;5085233;27;20543;-58
2022/03/02 11:18:40;;;;;;;9.75;8.82;;;8.30;93.40;;;;;;5128240;27;20715;-58
2022/03/02 11:21:24;;;;;;;12.43;8.52;;;8.50;91.00;;;;;;5092941;27;20565;-58
2022/03/02 11:24:04;;;;;;;7.82;7.13;;;8.40;81.30;;;;;;5106407;27;20911;-58
2022/03/02 11:26:44;;;;;;;7.25;6.65;;;8.50;73.90;;;;;;5147445;27;21209;-58
2022/03/02 11:29:28;;;;;;;7.35;6.65;;;8.70;71.10;;;;;;5147920;27;20681;-56
2022/03/02 11:32:14;;;;;;;6.82;6.22;;;8.80;57.30;;;;;;5145193;27;20554;-57
2022/03/02 11:34:53;;;;;;;8.07;7.40;;;8.80;53.00;;;;;;5149056;27;21059;-58
2022/03/02 11:37:34;;;;;;;9.20;7.85;;;8.70;56.80;;;;;;5084742;27;20561;-58
2022/03/02 11:40:16;;;;;;;8.00;7.30;;;8.70;59.80;;;;;;5084021;28;20679;-58
2022/03/02 11:42:55;;;;;;;9.10;7.32;;;8.90;58.00;;;;;;5126168;27;20540;-58
2022/03/02 11:45:37;;;;;;;7.63;7.03;;;8.80;56.90;;;;;;5105924;27;20662;-58
2022/03/02 11:48:16;;;;;;;8.88;7.97;;;8.80;57.60;;;;;;5105623;27;20542;-55
2022/03/02 11:51:14;;;;;;;9.07;8.18;;;8.60;56.60;;;;;;5082303;27;21101;-58
2022/03/02 11:53:55;;;;;;;8.05;7.25;;;8.60;57.80;;;;;;5105240;27;20545;-58
2022/03/02 11:56:35;;;;;;;9.23;8.35;;;8.90;57.10;;;;;;5079936;28;21199;-58
2022/03/02 11:59:16;;;;;;;8.07;7.28;;;9.10;57.00;;;;;;5102391;27;20673;-58
2022/03/02 12:01:56;;;;;;;8.88;7.68;;;9.30;55.40;;;;;;5100266;27;20986;-58
2022/03/02 12:04:38;;;;;;;8.18;7.57;;;9.40;54.40;;;;;;5083427;27;20542;-58
2022/03/02 12:07:17;;;;;;;8.80;8.00;;;9.50;54.30;;;;;;5084039;27;20557;-58
2022/03/02 12:09:57;;;;;;;8.18;7.38;;;9.40;53.80;;;;;;5083815;28;20676;-58
2022/03/02 12:12:43;;;;;;;8.75;7.85;;;9.30;53.70;;;;;;5104536;27;21006;-58
2022/03/02 12:15:23;;;;;;;8.10;7.40;;;9.10;54.40;;;;;;5104005;27;20677;-58
2022/03/02 12:18:10;;;;;;;7.18;6.57;;;9.10;55.50;;;;;;5083688;27;20539;-58
2022/03/02 12:20:51;;;;;;;9.02;8.18;;;9.20;55.30;;;;;;5082196;28;20687;-58
2022/03/02 12:23:35;;;;;;;8.55;7.75;;;9.40;54.90;;;;;;5065919;27;21016;-58
2022/03/02 12:26:14;;;;;;;8.55;7.78;;;9.30;53.90;;;;;;5083888;28;21200;-58
2022/03/02 12:28:57;;;;;;;8.60;7.90;;;9.20;54.00;;;;;;5137737;27;20665;-58
2022/03/02 12:31:37;;;;;;;8.02;7.30;;;9.30;54.90;;;;;;5102059;27;21082;-58
2022/03/02 12:34:17;;;;;;;9.90;8.35;;;9.40;54.30;;;;;;5083937;27;20579;-58
2022/03/02 12:36:56;;;;;;;8.70;7.90;;;9.30;53.20;;;;;;5153515;27;20544;-57
2022/03/02 12:39:37;;;;;;;7.55;6.93;;;9.30;55.30;;;;;;5104912;27;20944;-58
2022/03/02 12:42:16;;;;;;;8.48;7.68;;;9.40;53.50;;;;;;5084354;27;20588;-58
2022/03/02 12:44:57;;;;;;;7.88;7.18;;;9.30;52.60;;;;;;5104369;27;20545;-58
2022/03/02 12:47:38;;;;;;;10.20;7.88;;;9.10;52.80;;;;;;5084396;28;20676;-58
2022/03/02 12:50:19;;;;;;;8.38;7.05;;;9.00;54.90;;;;;;5084222;27;20555;-57
2022/03/02 12:52:59;;;;;;;8.13;7.32;;;9.00;54.20;;;;;;5085565;28;20894;-58
2022/03/02 12:55:39;;;;;;;7.88;7.18;;;8.90;51.60;;;;;;5084812;28;20547;-56
2022/03/02 12:58:19;;;;;;;8.43;7.55;;;8.90;52.80;;;;;;5084197;28;20695;-58
2022/03/02 13:00:58;;;;;;;7.30;6.70;;;9.00;53.20;;;;;;5084047;27;21029;-58
2022/03/02 13:03:44;;;;;;;6.93;6.22;;;9.00;52.30;;;;;;5084846;27;20583;-58
2022/03/02 13:06:31;;;;;;;7.68;6.88;;;9.10;51.70;;;;;;5138495;27;21338;-58
2022/03/02 13:09:17;;;;;;;8.93;7.03;;;9.10;51.50;;;;;;5084445;27;20557;-58
2022/03/02 13:12:16;;;;;;;7.68;7.05;;;9.10;50.90;;;;;;5145423;27;20670;-58
2022/03/02 13:14:56;;;;;;;8.60;7.07;;;9.00;51.00;;;;;;5084449;27;20998;-58
2022/03/02 13:17:35;;;;;;;7.40;6.80;;;9.10;51.50;;;;;;5104540;27;20681;-58
2022/03/02 13:20:19;;;;;;;7.15;6.55;;;9.20;51.20;;;;;;5080978;28;20556;-58
2022/03/02 13:23:11;;;;;;;7.35;6.65;;;9.20;51.50;;;;;;5104984;27;20673;-58
2022/03/02 13:26:13;;;;;;;7.07;6.53;;;9.20;51.30;;;;;;5142799;27;20660;-59
2022/03/02 13:29:11;;;;;;;7.13;6.53;;;9.10;49.30;;;;;;5140037;27;21039;-57
2022/03/02 13:31:56;;;;;;;7.45;6.53;;;8.90;51.00;;;;;;5084770;28;20676;-57
2022/03/02 13:34:37;;;;;;;7.60;6.30;;;9.00;49.30;;;;;;5080819;27;20559;-58
2022/03/02 13:37:17;;;;;;;6.80;6.10;;;9.00;49.10;;;;;;5125168;27;20543;-58
2022/03/02 13:39:56;;;;;;;6.68;6.07;;;9.10;47.20;;;;;;5084382;28;20668;-57
2022/03/02 13:42:36;;;;;;;7.18;6.43;;;9.10;45.80;;;;;;5085298;28;20680;-57
2022/03/02 13:45:16;;;;;;;8.15;5.90;;;9.00;46.70;;;;;;5084637;28;20691;-58
2022/03/02 13:48:13;;;;;;;6.60;6.00;;;9.20;46.00;;;;;;5084964;27;20580;-58
2022/03/02 13:50:58;;;;;;;7.35;6.55;;;9.30;47.30;;;;;;5083037;27;20551;-57
2022/03/02 13:53:40;;;;;;;7.30;6.43;;;9.30;47.60;;;;;;5149610;27;20538;-57
2022/03/02 13:56:21;;;;;;;6.80;6.20;;;9.20;47.20;;;;;;5084493;28;20668;-59